Orcutt, California
Current Conditions -  °F | °C
As of 2:51 PM on Wednesday 22 Oct 2014 (Local Time) from KSMX Reporting Station
Scattered Clouds Scattered Clouds  
Wind Chill: 80°   Ceiling: Unl
Heat Index: 80°   Visibility: 10mi
Dew Point: 49°   Wind: 18mph
Humidity: 34%   Direction: 290°WNW
Pressure: 29.92"   Gusts: NA
Location:  34.8654°N, 120.435°W
Report Text: KSMX 222151Z 29016KT 10SM SCT250 27/09 A2992 RMK AO2 SLP132 T02670094
Loading
Personal Weather Stations






























Interactive Weather Map
Tropical Storm Tracking
New forecast layout! Learn more

10-Day Weather Forecast

Advertisements
Track Severe Weather on mobile